Time;durP1;ratioP1;P1;durP2;ratioP2;P2;SDS_P1;SDS_P2;PMS_P1;PMS_P2;Temp;Humidity;BMP_temperature;BMP_pressure;BME280_temperature;BME280_humidity;BME280_pressure;Samples;Min_cycle;Max_cycle;Signal;HPM_P1;HPM_P2
2021/04/19 00:02:20;;;;;;;41.00;22.90;;;;;;;8.80;65.71;99019.14;114378;1206;103198;-70
2021/04/19 00:04:48;;;;;;;41.20;21.95;;;;;;;8.79;65.78;99025.40;114404;1206;103181;-70
2021/04/19 00:07:17;;;;;;;39.80;23.60;;;;;;;8.78;65.93;99029.00;114534;1206;103180;-69
2021/04/19 00:09:44;;;;;;;39.57;22.27;;;;;;;8.78;65.85;99021.05;114315;1206;103191;-70
2021/04/19 00:12:11;;;;;;;40.10;22.40;;;;;;;8.78;65.96;99023.70;114471;1206;103159;-70
2021/04/19 00:14:38;;;;;;;42.10;24.45;;;;;;;8.80;65.94;99024.45;114420;1206;103191;-71
2021/04/19 00:17:05;;;;;;;43.35;24.20;;;;;;;8.78;65.96;99031.66;114469;1206;103641;-71
2021/04/19 00:19:32;;;;;;;40.73;23.17;;;;;;;8.77;65.85;99029.95;114478;1206;103347;-71
2021/04/19 00:21:59;;;;;;;44.90;25.40;;;;;;;8.76;65.89;99034.42;114507;1206;103063;-71
2021/04/19 00:24:26;;;;;;;41.77;22.57;;;;;;;8.71;65.80;99025.08;114575;1206;103159;-70
2021/04/19 00:26:53;;;;;;;43.55;23.60;;;;;;;8.62;65.82;99023.86;114522;1206;101880;-71
2021/04/19 00:29:20;;;;;;;39.20;21.80;;;;;;;8.56;66.23;99029.59;114520;1206;103085;-72
2021/04/19 00:31:47;;;;;;;42.70;23.50;;;;;;;8.50;66.49;99025.52;114451;1206;103146;-72
2021/04/19 00:34:14;;;;;;;42.30;24.10;;;;;;;8.48;66.21;99025.63;114437;1206;103123;-71
2021/04/19 00:36:41;;;;;;;39.60;23.45;;;;;;;8.51;66.13;99026.38;114446;1206;103137;-69
2021/04/19 00:39:08;;;;;;;55.70;33.80;;;;;;;8.54;66.46;99019.06;114537;1206;103078;-71
2021/04/19 00:41:37;;;;;;;46.10;25.35;;;;;;;8.56;66.30;99022.47;114366;1206;103232;-71
2021/04/19 00:44:04;;;;;;;39.60;22.55;;;;;;;8.56;66.62;99019.82;114418;1205;103082;-71
2021/04/19 00:46:32;;;;;;;39.90;22.80;;;;;;;8.52;66.60;99015.66;114516;1206;103095;-71
2021/04/19 00:49:00;;;;;;;42.20;24.70;;;;;;;8.51;66.42;99021.08;114494;1206;103082;-71
2021/04/19 00:51:27;;;;;;;41.00;22.80;;;;;;;8.49;66.62;99015.86;114521;1206;103517;-71
2021/04/19 00:53:55;;;;;;;41.15;22.85;;;;;;;8.49;66.65;99019.38;114472;1206;103208;-71
2021/04/19 00:56:23;;;;;;;40.40;22.80;;;;;;;8.49;66.63;99016.73;114400;1206;103060;-71
2021/04/19 00:58:50;;;;;;;44.90;26.35;;;;;;;8.49;66.85;99018.52;114523;1206;103088;-71
2021/04/19 01:01:17;;;;;;;53.30;32.40;;;;;;;8.50;66.78;99009.61;114501;1206;103091;-71
2021/04/19 01:03:46;;;;;;;46.60;26.00;;;;;;;8.51;66.60;99010.48;114535;1206;103095;-71
2021/04/19 01:06:14;;;;;;;46.15;24.90;;;;;;;8.52;66.85;99012.17;114397;1206;103223;-71
2021/04/19 01:08:41;;;;;;;42.60;23.90;;;;;;;8.50;66.74;99006.96;114374;1206;103099;-71
2021/04/19 01:11:09;;;;;;;40.67;23.77;;;;;;;8.51;67.17;99006.01;114540;1206;103172;-71
2021/04/19 01:13:37;;;;;;;42.15;23.70;;;;;;;8.51;66.86;99002.52;114450;1206;103160;-70
2021/04/19 01:16:04;;;;;;;40.50;23.60;;;;;;;8.48;66.76;99006.17;114456;1206;103152;-71
2021/04/19 01:18:31;;;;;;;42.97;25.13;;;;;;;8.46;66.83;98997.47;114476;1206;103148;-70
2021/04/19 01:20:58;;;;;;;42.70;24.50;;;;;;;8.45;67.35;99001.94;114377;1206;103188;-71
2021/04/19 01:23:26;;;;;;;39.73;23.13;;;;;;;8.44;67.08;99000.23;114451;1206;103216;-71
2021/04/19 01:25:53;;;;;;;41.30;24.50;;;;;;;8.43;67.38;99006.48;114437;1206;103209;-70
2021/04/19 01:28:21;;;;;;;41.55;24.85;;;;;;;8.43;67.21;99003.84;114523;1206;103605;-71
2021/04/19 01:30:52;;;;;;;39.40;22.40;;;;;;;8.39;67.50;98999.68;114462;1206;103583;-71
2021/04/19 01:33:19;;;;;;;43.15;24.20;;;;;;;8.40;67.53;99000.52;114407;1206;103074;-71
2021/04/19 01:35:47;;;;;;;42.75;24.85;;;;;;;8.36;67.56;99002.53;114466;1206;103503;-70
2021/04/19 01:38:18;;;;;;;47.00;25.25;;;;;;;8.36;67.20;98999.88;114479;1205;103088;-70
2021/04/19 01:40:45;;;;;;;45.80;25.40;;;;;;;8.34;67.42;99002.64;114451;1206;103072;-70
2021/04/19 01:43:12;;;;;;;41.70;24.35;;;;;;;8.34;67.52;99004.42;114477;1206;103201;-70
2021/04/19 01:45:39;;;;;;;39.45;23.65;;;;;;;8.32;67.34;99007.19;114435;1205;103168;-71
2021/04/19 01:48:07;;;;;;;44.53;25.17;;;;;;;8.32;67.76;99007.19;114439;1205;103059;-71
2021/04/19 01:50:35;;;;;;;42.60;24.07;;;;;;;8.33;67.55;99003.59;114339;1205;103155;-73
2021/04/19 01:53:03;;;;;;;43.80;25.40;;;;;;;8.33;67.51;99003.59;114442;1206;103156;-70
2021/04/19 01:55:32;;;;;;;45.77;25.77;;;;;;;8.33;67.66;99002.72;114490;1206;103386;-68
2021/04/19 01:58:12;;;;;;;43.75;25.65;;;;;;;8.30;67.63;98998.48;114450;1206;103085;-70
2021/04/19 02:00:43;;;;;;;47.10;25.70;;;;;;;8.31;67.66;98992.23;114364;1206;103161;-70
2021/04/19 02:03:36;;;;;;;43.55;24.50;;;;;;;8.27;67.99;98996.03;114498;1205;103133;-70
2021/04/19 02:06:36;;;;;;;43.80;25.90;;;;;;;8.26;67.94;99004.06;114507;1206;103059;-71
2021/04/19 02:09:20;;;;;;;42.60;24.40;;;;;;;8.23;67.83;98991.01;114523;1206;103185;-71
2021/04/19 02:12:09;;;;;;;45.20;25.50;;;;;;;8.21;67.81;98988.47;114477;1206;103156;-71
2021/04/19 02:14:52;;;;;;;44.15;25.85;;;;;;;8.22;67.94;98986.66;114537;1206;103158;-69
2021/04/19 02:17:46;;;;;;;48.15;27.10;;;;;;;8.19;67.88;98988.55;114526;1206;103059;-71
2021/04/19 02:20:31;;;;;;;46.60;26.40;;;;;;;8.19;68.18;98985.06;114515;1206;103229;-71
2021/04/19 02:23:09;;;;;;;44.90;25.95;;;;;;;8.16;68.31;98979.97;114425;1205;103207;-71
2021/04/19 02:25:40;;;;;;;48.05;27.00;;;;;;;8.14;68.07;98985.38;114354;1206;103133;-71
2021/04/19 02:28:14;;;;;;;45.60;27.50;;;;;;;8.12;68.36;98978.45;114526;1206;103159;-71
2021/04/19 02:30:46;;;;;;;46.45;27.30;;;;;;;8.10;68.61;98983.00;114409;1206;103165;-71
2021/04/19 02:33:17;;;;;;;46.90;26.00;;;;;;;8.07;68.05;98972.59;115305;1206;103091;-71
2021/04/19 02:35:46;;;;;;;48.25;26.00;;;;;;;8.06;68.41;98977.06;114449;1206;103242;-71
2021/04/19 02:38:22;;;;;;;46.20;27.13;;;;;;;8.04;68.22;98971.01;114342;1206;103105;-72
2021/04/19 02:40:51;;;;;;;46.10;26.80;;;;;;;8.01;68.07;98976.50;114489;1206;103171;-71
2021/04/19 02:43:22;;;;;;;50.97;28.33;;;;;;;8.01;68.47;98974.69;114383;1205;103092;-71
2021/04/19 02:45:51;;;;;;;46.70;26.25;;;;;;;8.02;68.21;98979.03;114483;1206;103175;-70
2021/04/19 02:48:23;;;;;;;48.50;27.60;;;;;;;8.01;68.43;98971.20;114499;1206;103092;-70
2021/04/19 02:50:52;;;;;;;42.05;26.10;;;;;;;8.03;68.31;98971.95;114422;1205;103094;-69
2021/04/19 02:53:21;;;;;;;47.00;26.50;;;;;;;8.02;68.54;98968.44;114510;1206;103149;-70
2021/04/19 02:55:49;;;;;;;46.00;27.00;;;;;;;8.01;68.40;98965.91;114476;1206;103118;-71
2021/04/19 02:58:25;;;;;;;47.95;26.15;;;;;;;7.99;68.67;98965.98;114409;1206;103085;-71
2021/04/19 03:00:53;;;;;;;46.50;26.60;;;;;;;7.97;68.70;98959.94;114497;1206;103124;-70
2021/04/19 03:03:25;;;;;;;48.20;28.20;;;;;;;7.99;68.49;98962.50;114497;1206;103150;-70
2021/04/19 03:05:57;;;;;;;50.20;28.30;;;;;;;8.00;69.01;98964.20;114335;1206;103166;-70
2021/04/19 03:08:30;;;;;;;49.35;28.60;;;;;;;7.98;68.64;98963.45;114393;1205;103172;-71
2021/04/19 03:11:02;;;;;;;;;;;;;;;7.95;68.59;98953.88;114538;1206;103092;-71
2021/04/19 03:13:31;;;;;;;46.50;27.50;;;;;;;7.95;68.91;98955.70;114430;1206;103172;-70
2021/04/19 03:15:59;;;;;;;46.50;26.10;;;;;;;7.90;68.89;98942.77;114325;1206;103788;-70
2021/04/19 03:18:31;;;;;;;48.75;27.95;;;;;;;7.86;68.99;98936.79;114622;1206;103076;-70
2021/04/19 03:21:10;;;;;;;44.43;24.30;;;;;;;7.82;68.78;98934.45;114487;1206;103176;-71
2021/04/19 03:23:58;;;;;;;46.05;26.20;;;;;;;7.77;69.08;98918.83;114501;1206;103178;-71
2021/04/19 03:26:30;;;;;;;48.23;26.97;;;;;;;7.71;68.99;98914.78;114522;1206;103088;-71
2021/04/19 03:28:59;;;;;;;44.95;25.65;;;;;;;7.67;68.95;98915.92;114520;1205;103194;-70
2021/04/19 03:31:39;;;;;;;43.07;23.93;;;;;;;7.62;69.13;98912.71;114456;1205;103204;-70
2021/04/19 03:34:12;;;;;;;46.00;25.15;;;;;;;7.56;68.89;98919.26;114513;1206;103104;-72
2021/04/19 03:36:42;;;;;;;47.03;26.85;;;;;;;7.53;68.70;98919.45;114557;1206;103280;-72
2021/04/19 03:39:10;;;;;;;47.50;27.60;;;;;;;7.52;69.42;98916.91;114501;1205;103091;-70
2021/04/19 03:41:45;;;;;;;45.93;27.23;;;;;;;7.55;69.39;98911.39;115053;1206;103153;-72
2021/04/19 03:44:15;;;;;;;48.40;27.60;;;;;;;7.55;69.49;98914.91;114516;1206;103258;-71
2021/04/19 03:46:43;;;;;;;47.25;28.65;;;;;;;7.56;69.28;98918.39;114456;1206;103159;-73
2021/04/19 03:49:22;;;;;;;46.20;28.45;;;;;;;7.58;69.45;98919.14;114545;1206;103079;-71
2021/04/19 03:51:56;;;;;;;48.30;29.70;;;;;;;7.58;69.29;98914.72;114894;1206;103140;-70
2021/04/19 03:54:29;;;;;;;50.00;29.30;;;;;;;7.59;69.34;98907.61;114486;1206;103117;-71
2021/04/19 03:57:01;;;;;;;50.90;28.95;;;;;;;7.57;69.33;98915.66;114521;1206;103047;-70
2021/04/19 03:59:30;;;;;;;53.17;29.77;;;;;;;7.55;69.30;98914.91;114504;1205;103085;-69
2021/04/19 04:02:02;;;;;;;52.50;30.80;;;;;;;7.54;69.69;98918.50;114535;1206;103050;-70
2021/04/19 04:04:31;;;;;;;56.40;31.65;;;;;;;7.49;69.59;98917.94;114319;1206;103105;-68
2021/04/19 04:07:00;;;;;;;55.55;33.95;;;;;;;7.46;69.48;98920.77;114317;1206;103099;-82
2021/04/19 04:09:29;;;;;;;55.80;33.20;;;;;;;7.43;69.83;98928.89;115166;1205;103081;-68
2021/04/19 04:11:56;;;;;;;54.95;31.50;;;;;;;7.44;69.59;98934.11;114514;1206;103156;-70
2021/04/19 04:14:24;;;;;;;53.20;32.40;;;;;;;7.46;69.84;98928.71;114501;1206;103150;-71
2021/04/19 04:16:51;;;;;;;54.00;31.80;;;;;;;7.44;69.60;98928.82;114494;1205;103049;-71
2021/04/19 04:19:18;;;;;;;51.90;30.90;;;;;;;7.45;69.72;98921.72;114477;1206;103131;-70
2021/04/19 04:21:47;;;;;;;53.40;33.70;;;;;;;7.45;69.79;98927.01;114500;1206;103159;-69
2021/04/19 04:24:15;;;;;;;56.60;32.87;;;;;;;7.41;69.73;98933.43;114342;1206;103143;-69
2021/04/19 04:26:43;;;;;;;55.60;33.80;;;;;;;7.38;69.87;98937.13;115275;1206;103156;-69
2021/04/19 04:29:11;;;;;;;56.93;36.33;;;;;;;7.35;69.93;98939.97;114105;1206;103322;-69
2021/04/19 04:31:37;;;;;;;57.60;37.00;;;;;;;7.30;69.88;98939.39;114412;1206;103162;-69
2021/04/19 04:34:05;;;;;;;56.90;37.45;;;;;;;7.29;69.74;98945.63;114481;1205;103130;-69
2021/04/19 04:36:32;;;;;;;61.50;40.40;;;;;;;7.28;69.99;98949.22;114483;1206;103187;-69
2021/04/19 04:38:59;;;;;;;63.55;41.10;;;;;;;7.27;70.01;98952.81;114486;1206;103056;-68
2021/04/19 04:41:26;;;;;;;61.53;39.53;;;;;;;7.25;69.84;98949.41;114388;1206;103114;-70
2021/04/19 04:43:57;;;;;;;64.20;41.40;;;;;;;7.24;70.00;98947.70;114455;1206;103188;-70
2021/04/19 04:46:45;;;;;;;63.30;40.60;;;;;;;7.21;70.07;98948.75;114480;1206;103567;-69
2021/04/19 04:49:20;;;;;;;60.30;38.90;;;;;;;7.18;70.04;98942.78;114395;1205;103070;-69
2021/04/19 04:51:48;;;;;;;62.90;39.30;;;;;;;7.19;70.29;98941.84;114456;1206;103217;-69
2021/04/19 04:54:19;;;;;;;57.40;35.85;;;;;;;7.19;70.07;98941.84;114455;1206;103187;-69
2021/04/19 04:56:53;;;;;;;54.90;34.60;;;;;;;7.18;70.15;98940.13;114452;1206;103163;-70
2021/04/19 04:59:22;;;;;;;59.10;36.40;;;;;;;7.18;70.13;98945.42;114503;1206;103210;-69
2021/04/19 05:01:50;;;;;;;57.60;35.40;;;;;;;7.15;70.06;98939.38;114496;1206;103078;-71
2021/04/19 05:04:18;;;;;;;54.05;34.45;;;;;;;7.15;70.34;98951.77;114442;1206;103146;-70
2021/04/19 05:06:46;;;;;;;55.80;35.30;;;;;;;7.14;70.24;98942.96;114478;1205;103306;-70
2021/04/19 05:09:14;;;;;;;56.45;35.10;;;;;;;7.16;70.45;98942.89;114432;1206;103171;-70
2021/04/19 05:11:43;;;;;;;57.37;35.43;;;;;;;7.19;70.42;98941.84;114414;1206;103146;-69
2021/04/19 05:14:11;;;;;;;52.80;31.45;;;;;;;7.21;70.61;98939.95;114418;1206;103583;-69
2021/04/19 05:16:38;;;;;;;53.07;30.97;;;;;;;7.18;70.37;98934.84;114452;1206;103056;-68
2021/04/19 05:19:07;;;;;;;55.03;34.33;;;;;;;7.13;70.29;98935.13;114491;1206;103308;-70
2021/04/19 05:21:36;;;;;;;57.90;35.30;;;;;;;7.10;70.29;98945.90;114462;1206;103226;-70
2021/04/19 05:24:04;;;;;;;56.20;35.40;;;;;;;7.11;70.71;98944.95;114441;1206;103165;-69
2021/04/19 05:26:31;;;;;;;57.70;34.15;;;;;;;7.13;70.71;98941.27;114444;1206;103134;-69
2021/04/19 05:29:00;;;;;;;60.45;37.90;;;;;;;7.18;70.62;98948.07;114384;1206;103507;-71
2021/04/19 05:31:27;;;;;;;55.25;34.40;;;;;;;7.17;70.53;98935.78;114445;1205;103176;-70
2021/04/19 05:33:55;;;;;;;57.25;37.15;;;;;;;7.19;70.93;98934.77;114451;1206;103126;-72
2021/04/19 05:36:25;;;;;;;59.75;38.05;;;;;;;7.22;70.59;98936.36;114457;1206;103047;-71
2021/04/19 05:38:53;;;;;;;51.80;32.60;;;;;;;7.25;70.71;98928.23;114484;1206;103127;-70
2021/04/19 05:41:22;;;;;;;54.10;32.10;;;;;;;7.26;70.85;98922.87;114491;1206;103047;-69
2021/04/19 05:43:51;;;;;;;53.90;34.80;;;;;;;7.26;70.75;98933.45;114503;1206;103117;-69
2021/04/19 05:46:19;;;;;;;55.60;33.50;;;;;;;7.30;71.15;98934.10;114441;1206;103091;-70
2021/04/19 05:48:46;;;;;;;58.17;37.53;;;;;;;7.32;70.83;98932.22;114501;1206;103083;-69
2021/04/19 05:51:40;;;;;;;52.80;32.90;;;;;;;7.36;71.18;98928.44;114446;1206;103081;-71
2021/04/19 05:54:11;;;;;;;51.90;33.00;;;;;;;7.39;71.19;98940.62;114462;1206;103092;-72
2021/04/19 05:56:56;;;;;;;52.47;33.23;;;;;;;7.42;71.16;98935.13;114436;1206;103242;-70
2021/04/19 05:59:45;;;;;;;55.40;34.45;;;;;;;7.44;71.10;98934.11;113949;1206;103182;-69
2021/04/19 06:02:23;;;;;;;60.15;35.70;;;;;;;7.47;70.93;98930.41;114395;1206;103057;-71
2021/04/19 06:05:01;;;;;;;53.40;32.70;;;;;;;7.48;71.15;98937.41;114431;1206;103203;-71
2021/04/19 06:07:44;;;;;;;52.90;33.20;;;;;;;7.52;71.14;98935.44;114423;1206;103095;-70
2021/04/19 06:10:21;;;;;;;59.43;36.83;;;;;;;7.54;71.58;98938.84;114419;1206;103072;-70
2021/04/19 06:12:51;;;;;;;57.90;35.10;;;;;;;7.56;71.34;98939.56;114371;1206;103075;-70
2021/04/19 06:15:21;;;;;;;;;;;;;;;7.58;71.55;98938.54;114423;1206;103056;-70
2021/04/19 06:17:51;;;;;;;57.17;37.20;;;;;;;7.64;71.15;98942.59;114284;1206;103131;-70
2021/04/19 06:20:20;;;;;;;59.30;36.27;;;;;;;7.63;71.57;98937.41;114347;1205;103152;-70
2021/04/19 06:22:49;;;;;;;50.47;29.17;;;;;;;7.63;71.49;98938.24;114369;1206;103338;-70
2021/04/19 06:25:18;;;;;;;55.20;35.70;;;;;;;7.52;71.21;98938.92;114380;1206;103075;-70
2021/04/19 06:27:46;;;;;;;61.65;38.70;;;;;;;7.50;71.58;98942.63;114382;1206;103619;-70
2021/04/19 06:30:21;;;;;;;55.35;34.75;;;;;;;7.52;71.57;98938.08;114482;1206;103206;-71
2021/04/19 06:32:51;;;;;;;58.20;33.90;;;;;;;7.50;71.12;98945.27;114509;1206;103213;-73
2021/04/19 06:35:19;;;;;;;64.00;38.00;;;;;;;7.47;71.35;98938.35;114468;1206;103239;-72
2021/04/19 06:37:54;;;;;;;64.90;39.30;;;;;;;7.48;71.35;98934.76;114451;1206;103541;-71
2021/04/19 06:40:22;;;;;;;58.55;36.25;;;;;;;7.48;71.74;98937.41;114447;1206;103085;-70
2021/04/19 06:42:53;;;;;;;65.30;39.65;;;;;;;7.47;71.44;98940.16;114428;1206;103212;-71
2021/04/19 06:45:21;;;;;;;59.70;37.30;;;;;;;7.48;71.35;98932.11;114454;1206;103215;-71
2021/04/19 06:47:50;;;;;;;68.30;41.10;;;;;;;7.49;71.74;98938.27;114460;1206;103094;-72
2021/04/19 06:50:17;;;;;;;68.20;40.60;;;;;;;7.49;71.60;98931.16;114455;1206;103056;-72
2021/04/19 06:52:48;;;;;;;59.70;33.70;;;;;;;7.51;71.66;98933.73;114424;1206;103181;-72
2021/04/19 06:55:20;;;;;;;68.73;40.13;;;;;;;7.50;71.63;98935.52;114391;1206;103268;-72
2021/04/19 06:57:55;;;;;;;64.60;35.90;;;;;;;7.54;72.02;98930.90;114460;1206;103102;-70
2021/04/19 07:00:25;;;;;;;67.65;39.80;;;;;;;7.55;71.89;98929.92;114376;1206;103150;-71
2021/04/19 07:02:58;;;;;;;65.10;40.70;;;;;;;7.59;71.98;98929.66;114363;1206;103051;-71
2021/04/19 07:05:31;;;;;;;62.70;37.10;;;;;;;7.65;71.85;98932.87;114732;1206;103104;-71
2021/04/19 07:08:33;;;;;;;65.73;40.17;;;;;;;7.70;71.93;98928.97;114412;1206;103082;-71
2021/04/19 07:11:05;;;;;;;63.60;40.40;;;;;;;7.80;72.06;98928.39;114365;1206;103233;-70
2021/04/19 07:13:37;;;;;;;64.67;39.03;;;;;;;7.87;72.17;98929.71;114409;1206;103085;-72
2021/04/19 07:16:06;;;;;;;58.63;33.87;;;;;;;7.96;71.95;98917.67;114403;1206;103158;-71
2021/04/19 07:18:35;;;;;;;61.60;37.20;;;;;;;8.02;72.09;98910.16;114433;1206;103248;-70
2021/04/19 07:21:06;;;;;;;68.50;40.00;;;;;;;8.11;72.12;98913.17;114463;1206;103127;-71
2021/04/19 07:23:36;;;;;;;68.80;41.00;;;;;;;8.23;72.02;98908.86;114483;1206;103092;-70
2021/04/19 07:26:05;;;;;;;105.55;70.45;;;;;;;8.31;72.03;98902.13;114419;1206;103158;-70
2021/04/19 07:28:37;;;;;;;67.25;40.30;;;;;;;8.38;71.93;98907.00;114466;1206;103155;-72
2021/04/19 07:31:11;;;;;;;70.40;40.10;;;;;;;8.44;72.41;98909.25;114392;1206;103139;-71
2021/04/19 07:33:39;;;;;;;63.27;39.17;;;;;;;8.50;72.37;98908.88;114471;1206;103203;-72
2021/04/19 07:36:28;;;;;;;68.95;42.20;;;;;;;8.56;72.16;98927.03;114453;1206;103563;-71
2021/04/19 07:39:01;;;;;;;61.55;38.40;;;;;;;8.59;72.55;98924.17;114467;1206;103255;-71
2021/04/19 07:41:48;;;;;;;;;;;;;;;8.58;72.63;98924.26;114455;1213;103082;-70
2021/04/19 07:44:41;;;;;;;65.95;39.10;;;;;;;8.57;72.27;98925.21;114440;1206;103063;-70
2021/04/19 07:47:33;;;;;;;66.27;40.83;;;;;;;8.53;72.35;98921.93;114413;1206;103210;-71
2021/04/19 07:50:21;;;;;;;64.40;39.75;;;;;;;8.54;72.25;98922.80;114437;1206;103152;-70
2021/04/19 07:52:54;;;;;;;67.20;42.15;;;;;;;8.52;72.54;98924.70;114429;1206;103049;-71
2021/04/19 07:55:35;;;;;;;73.80;44.00;;;;;;;8.48;72.02;98916.95;114453;1206;103197;-71
2021/04/19 07:58:25;;;;;;;73.00;43.20;;;;;;;8.45;72.34;98916.25;114454;1206;103102;-71
2021/04/19 08:01:02;;;;;;;69.90;43.20;;;;;;;8.40;72.27;98921.87;114450;1205;103510;-71
2021/04/19 08:03:40;;;;;;;72.00;42.37;;;;;;;8.36;72.46;98923.02;114461;1206;103148;-71
2021/04/19 08:06:22;;;;;;;76.65;45.35;;;;;;;8.34;72.24;98927.57;114386;1206;103197;-72
2021/04/19 08:08:49;;;;;;;71.75;42.50;;;;;;;8.29;72.16;98927.02;114384;1205;103162;-74
2021/04/19 08:11:18;;;;;;;73.80;44.80;;;;;;;8.27;72.62;98923.61;114267;1206;103175;-73
2021/04/19 08:13:47;;;;;;;67.55;41.10;;;;;;;8.23;72.63;98924.77;114453;1205;103101;-70
2021/04/19 08:16:19;;;;;;;72.20;42.20;;;;;;;8.19;72.62;98924.13;114415;1205;103081;-76
2021/04/19 08:18:59;;;;;;;81.77;46.00;;;;;;;8.18;72.67;98920.61;114319;1206;103168;-75
2021/04/19 08:21:28;;;;;;;60.05;36.00;;;;;;;8.18;72.30;98920.61;114287;1206;103391;-71
2021/04/19 08:24:12;;;;;;;76.40;45.00;;;;;;;8.14;72.56;98920.92;114300;1206;103546;-73
2021/04/19 08:26:55;;;;;;;74.25;43.60;;;;;;;8.16;72.65;98919.03;114209;1206;103156;-72
2021/04/19 08:29:48;;;;;;;81.80;48.30;;;;;;;8.19;72.95;98922.31;114309;1206;103743;-72
2021/04/19 08:32:23;;;;;;;73.93;45.07;;;;;;;8.24;72.61;98910.56;114194;1207;103198;-71
2021/04/19 08:34:51;;;;;;;73.60;43.55;;;;;;;8.29;72.93;98914.63;113888;1205;103114;-71
2021/04/19 08:37:22;;;;;;;80.35;46.40;;;;;;;8.31;72.67;98918.03;114098;1206;103057;-71
2021/04/19 08:39:50;;;;;;;72.80;43.40;;;;;;;8.31;72.90;98915.38;114232;1206;103188;-72
2021/04/19 08:42:21;;;;;;;73.00;43.40;;;;;;;8.30;72.76;98918.11;114274;1206;103069;-72
2021/04/19 08:44:56;;;;;;;65.45;39.70;;;;;;;8.30;72.81;98924.28;114334;1206;103306;-72
2021/04/19 08:47:29;;;;;;;77.30;46.80;;;;;;;8.23;72.83;98925.63;114272;1206;103060;-72
2021/04/19 08:50:02;;;;;;;76.85;46.05;;;;;;;8.24;73.09;98931.77;114333;1206;103102;-73
2021/04/19 08:52:32;;;;;;;75.57;45.77;;;;;;;8.26;72.95;98920.13;114296;1206;103931;-70
2021/04/19 08:54:59;;;;;;;74.95;44.95;;;;;;;8.24;72.82;98926.47;114406;1205;103484;-72
2021/04/19 08:57:26;;;;;;;78.73;46.73;;;;;;;8.26;73.17;98921.91;114361;1206;103293;-73
2021/04/19 08:59:57;;;;;;;87.65;50.10;;;;;;;8.29;72.76;98922.58;114314;1206;103072;-73
2021/04/19 09:02:25;;;;;;;89.07;51.33;;;;;;;8.31;72.90;98925.98;114334;1206;103200;-72
2021/04/19 09:05:07;;;;;;;91.15;51.90;;;;;;;8.34;73.29;98933.73;114268;1205;103188;-71
2021/04/19 09:07:38;;;;;;;85.25;50.20;;;;;;;8.37;73.26;98923.85;114236;1206;103114;-74
2021/04/19 09:10:09;;;;;;;88.70;51.05;;;;;;;8.38;73.29;98918.47;114180;1206;103221;-73
2021/04/19 09:12:37;;;;;;;86.00;50.00;;;;;;;8.36;73.24;98920.37;114218;1206;103580;-74
2021/04/19 09:15:28;;;;;;;86.75;51.75;;;;;;;8.37;73.26;98919.42;114172;1206;103098;-72
2021/04/19 09:18:08;;;;;;;96.57;56.13;;;;;;;8.40;73.22;98919.22;114338;1206;103056;-71
2021/04/19 09:20:54;;;;;;;91.25;52.05;;;;;;;8.44;73.38;98920.72;114351;1206;103191;-72
2021/04/19 09:23:26;;;;;;;97.00;56.50;;;;;;;8.45;73.38;98911.81;114347;1206;103229;-71
2021/04/19 09:25:54;;;;;;;154.05;98.05;;;;;;;8.48;73.48;98916.05;114316;1206;103276;-72
2021/04/19 09:28:41;;;;;;;99.80;59.80;;;;;;;8.48;73.56;98911.64;114360;1206;103081;-72
2021/04/19 09:31:11;;;;;;;91.85;56.40;;;;;;;8.49;73.25;98910.69;114397;1206;103539;-72
2021/04/19 09:33:41;;;;;;;96.00;54.00;;;;;;;8.49;73.46;98915.13;114374;1204;103070;-71
2021/04/19 09:36:08;;;;;;;92.70;54.47;;;;;;;8.51;73.31;98910.58;114398;1206;103144;-72
2021/04/19 09:38:47;;;;;;;93.33;53.37;;;;;;;8.54;73.69;98920.98;114300;1206;103156;-74
2021/04/19 09:41:18;;;;;;;91.10;51.93;;;;;;;8.53;73.28;98913.14;114302;1206;103156;-73
2021/04/19 09:43:54;;;;;;;84.00;51.20;;;;;;;8.55;73.42;98919.19;114346;1206;103073;-73
2021/04/19 09:46:31;;;;;;;91.95;55.20;;;;;;;8.57;73.49;98909.30;114430;1206;103251;-73
2021/04/19 09:49:03;;;;;;;92.97;53.57;;;;;;;8.57;73.55;98906.66;114412;1206;103052;-74
2021/04/19 09:51:39;;;;;;;76.10;47.10;;;;;;;8.60;73.30;98904.66;114381;1206;103047;-73
2021/04/19 09:54:17;;;;;;;82.60;46.80;;;;;;;8.62;73.36;98907.20;114390;1206;103152;-75
2021/04/19 09:56:53;;;;;;;80.10;46.35;;;;;;;8.66;73.93;98907.86;114376;1206;103056;-72
2021/04/19 09:59:28;;;;;;;76.40;45.10;;;;;;;8.71;73.41;98906.59;114348;1206;103149;-72
2021/04/19 10:01:59;;;;;;;66.57;38.17;;;;;;;8.76;73.81;98904.47;114413;1205;103049;-71
2021/04/19 10:04:32;;;;;;;;;;;;;;;8.82;73.86;98908.50;114420;1213;103207;-73
2021/04/19 10:07:05;;;;;;;59.55;34.15;;;;;;;8.88;73.87;98908.09;114393;1206;103076;-73
2021/04/19 10:09:41;;;;;;;55.48;31.35;;;;;;;8.93;73.88;98898.02;114383;1205;103114;-73
2021/04/19 10:12:13;;;;;;;51.40;31.15;;;;;;;8.99;73.92;98907.34;114445;1206;103166;-73
2021/04/19 10:14:43;;;;;;;49.75;29.05;;;;;;;9.05;73.77;98904.27;114353;1206;103284;-74
2021/04/19 10:17:19;;;;;;;68.10;44.40;;;;;;;9.10;73.77;98906.63;114325;1206;103644;-74
2021/04/19 10:19:46;;;;;;;53.47;31.33;;;;;;;9.13;73.72;98909.06;114376;1206;103050;-73
2021/04/19 10:22:17;;;;;;;45.50;28.20;;;;;;;9.14;73.67;98904.59;114330;1206;103054;-73
2021/04/19 10:24:58;;;;;;;46.70;26.60;;;;;;;9.15;73.47;98900.98;114304;1206;101862;-72
2021/04/19 10:27:29;;;;;;;49.90;28.15;;;;;;;9.17;73.71;98907.88;114424;1205;103155;-73
2021/04/19 10:30:10;;;;;;;44.85;27.75;;;;;;;9.22;73.92;98907.57;114403;1206;103053;-71
2021/04/19 10:32:37;;;;;;;48.10;29.25;;;;;;;9.25;74.04;98907.36;114424;1206;103204;-85
2021/04/19 10:35:33;;;;;;;44.20;27.90;;;;;;;9.31;74.00;98912.24;114571;1206;103198;-75
2021/04/19 10:38:28;;;;;;;50.30;31.90;;;;;;;9.36;74.21;98903.94;114372;1206;103082;-75
2021/04/19 10:40:59;;;;;;;49.50;31.25;;;;;;;9.39;73.86;98912.53;114337;1206;103085;-75
2021/04/19 10:43:28;;;;;;;47.00;29.67;;;;;;;9.43;74.07;98913.17;114284;1206;103076;-75
2021/04/19 10:45:55;;;;;;;46.50;29.85;;;;;;;9.45;74.08;98907.75;114334;1205;103049;-75
2021/04/19 10:48:29;;;;;;;45.30;27.90;;;;;;;9.46;73.91;98909.44;114381;1206;103549;-75
2021/04/19 10:51:15;;;;;;;45.33;28.27;;;;;;;9.46;74.13;98906.78;114302;1205;103060;-74
2021/04/19 10:53:44;;;;;;;43.60;28.00;;;;;;;9.44;74.04;98912.22;114327;1206;103542;-74
2021/04/19 10:56:25;;;;;;;44.35;28.15;;;;;;;9.44;74.02;98906.91;114301;1206;103197;-74
2021/04/19 10:59:00;;;;;;;48.45;29.90;;;;;;;9.44;74.00;98904.25;114334;1206;103510;-76
2021/04/19 11:01:30;;;;;;;43.50;28.30;;;;;;;9.44;73.84;98901.60;114295;1206;103124;-75
2021/04/19 11:04:00;;;;;;;45.80;28.00;;;;;;;9.47;74.19;98900.52;114353;1205;103073;-75
2021/04/19 11:06:28;;;;;;;43.40;27.75;;;;;;;9.48;73.97;98907.53;114447;1206;103082;-75
2021/04/19 11:08:57;;;;;;;41.80;26.17;;;;;;;9.49;74.07;98901.27;114367;1206;103369;-75
2021/04/19 11:11:37;;;;;;;45.30;27.80;;;;;;;9.48;74.08;98904.88;114434;1206;103049;-75
2021/04/19 11:14:25;;;;;;;45.10;27.90;;;;;;;9.48;74.12;98908.39;114446;1206;103209;-77
2021/04/19 11:17:03;;;;;;;47.80;30.37;;;;;;;9.52;73.85;98898.39;114625;1206;103056;-74
2021/04/19 11:19:45;;;;;;;44.50;27.30;;;;;;;9.54;74.14;98896.48;114440;1205;103348;-74
2021/04/19 11:22:34;;;;;;;44.60;29.80;;;;;;;9.58;74.21;98902.44;114388;1205;103277;-74
2021/04/19 11:25:18;;;;;;;41.90;27.00;;;;;;;9.60;74.27;98892.52;114425;1206;103146;-75
2021/04/19 11:27:49;;;;;;;40.60;26.60;;;;;;;9.63;74.18;98890.52;114388;1205;103214;-74
2021/04/19 11:30:24;;;;;;;37.25;24.60;;;;;;;9.64;74.24;98896.66;114430;1206;103043;-75
2021/04/19 11:33:12;;;;;;;39.23;24.70;;;;;;;9.65;74.17;98893.91;114453;1205;103044;-74
2021/04/19 11:35:44;;;;;;;40.37;25.23;;;;;;;9.64;74.22;98897.53;114426;1206;103110;-76